sensor_id;sensor_type;location;lat;lon;timestamp;pressure;altitude;pressure_sealevel;temperature;humidity
33949;BME280;20229;49.856;19.030;2023-01-27T00:01:26;101775.99;;;0.99;91.91
33949;BME280;20229;49.856;19.030;2023-01-27T00:06:49;101772.43;;;0.97;91.86
33949;BME280;20229;49.856;19.030;2023-01-27T00:11:52;101765.23;;;0.99;91.65
33949;BME280;20229;49.856;19.030;2023-01-27T00:17:15;101757.19;;;0.94;91.93
33949;BME280;20229;49.856;19.030;2023-01-27T00:22:18;101762.56;;;0.97;91.84
33949;BME280;20229;49.856;19.030;2023-01-27T00:27:41;101754.51;;;0.92;92.14
33949;BME280;20229;49.856;19.030;2023-01-27T00:32:44;101755.41;;;0.96;92.01
33949;BME280;20229;49.856;19.030;2023-01-27T00:38:06;101758.07;;;0.91;92.25
33949;BME280;20229;49.856;19.030;2023-01-27T00:43:10;101758.97;;;0.93;92.35
33949;BME280;20229;49.856;19.030;2023-01-27T00:48:33;101759.88;;;0.89;92.21
33949;BME280;20229;49.856;19.030;2023-01-27T00:53:36;101756.28;;;0.90;92.01
33949;BME280;20229;49.856;19.030;2023-01-27T00:58:59;101767.03;;;0.87;92.47
33949;BME280;20229;49.856;19.030;2023-01-27T01:04:03;101755.40;;;0.90;92.69
33949;BME280;20229;49.856;19.030;2023-01-27T01:09:25;101759.86;;;0.88;92.60
33949;BME280;20229;49.856;19.030;2023-01-27T01:14:28;101750.91;;;0.90;92.65
33949;BME280;20229;49.856;19.030;2023-01-27T01:19:51;101750.91;;;0.87;92.54
33949;BME280;20229;49.856;19.030;2023-01-27T01:24:54;101746.42;;;0.88;92.59
33949;BME280;20229;49.856;19.030;2023-01-27T01:30:17;101755.37;;;0.84;92.66
33949;BME280;20229;49.856;19.030;2023-01-27T01:35:21;101743.74;;;0.86;92.73
33949;BME280;20229;49.856;19.030;2023-01-27T01:40:44;101747.34;;;0.82;92.61
33949;BME280;20229;49.856;19.030;2023-01-27T01:45:55;101745.52;;;0.84;92.41
33949;BME280;20229;49.856;19.030;2023-01-27T01:56:33;101743.74;;;0.83;92.61
33949;BME280;20229;49.856;19.030;2023-01-27T02:01:37;101744.63;;;0.81;92.63
33949;BME280;20229;49.856;19.030;2023-01-27T02:06:46;101740.15;;;0.84;92.56
33949;BME280;20229;49.856;19.030;2023-01-27T02:12:02;101746.42;;;0.80;92.74
33949;BME280;20229;49.856;19.030;2023-01-27T02:17:07;101739.27;;;0.82;92.78
33949;BME280;20229;49.856;19.030;2023-01-27T02:27:42;101742.84;;;0.83;93.05
33949;BME280;20229;49.856;19.030;2023-01-27T02:32:54;101743.73;;;0.80;93.05
33949;BME280;20229;49.856;19.030;2023-01-27T02:37:58;101741.95;;;0.82;93.14
33949;BME280;20229;49.856;19.030;2023-01-27T02:43:20;101750.01;;;0.81;93.09
33949;BME280;20229;49.856;19.030;2023-01-27T02:48:23;101743.74;;;0.83;92.70
33949;BME280;20229;49.856;19.030;2023-01-27T02:53:46;101737.45;;;0.81;92.89
33949;BME280;20229;49.856;19.030;2023-01-27T02:58:49;101737.45;;;0.84;92.64
33949;BME280;20229;49.856;19.030;2023-01-27T03:04:12;101742.82;;;0.81;92.83
33949;BME280;20229;49.856;19.030;2023-01-27T03:09:17;101741.05;;;0.83;92.61
33949;BME280;20229;49.856;19.030;2023-01-27T03:14:38;101750.89;;;0.81;92.94
33949;BME280;20229;49.856;19.030;2023-01-27T03:19:53;101740.16;;;0.83;92.99
33949;BME280;20229;49.856;19.030;2023-01-27T03:25:05;101734.79;;;0.78;93.07
33949;BME280;20229;49.856;19.030;2023-01-27T03:30:09;101734.78;;;0.80;93.11
33949;BME280;20229;49.856;19.030;2023-01-27T03:35:30;101730.29;;;0.77;93.15
33949;BME280;20229;49.856;19.030;2023-01-27T03:40:40;101723.12;;;0.78;92.89
33949;BME280;20229;49.856;19.030;2023-01-27T03:45:56;101724.03;;;0.72;93.17
33949;BME280;20229;49.856;19.030;2023-01-27T03:51:12;101717.77;;;0.75;93.22
33949;BME280;20229;49.856;19.030;2023-01-27T03:56:22;101734.79;;;0.72;93.03
33949;BME280;20229;49.856;19.030;2023-01-27T04:01:26;101724.03;;;0.72;93.21
33949;BME280;20229;49.856;19.030;2023-01-27T04:06:48;101726.71;;;0.70;93.06
33949;BME280;20229;49.856;19.030;2023-01-27T04:11:57;101727.63;;;0.71;92.82
33949;BME280;20229;49.856;19.030;2023-01-27T04:17:16;101721.35;;;0.67;92.86
33949;BME280;20229;49.856;19.030;2023-01-27T04:22:20;101722.24;;;0.65;92.80
33949;BME280;20229;49.856;19.030;2023-01-27T04:27:40;101723.12;;;0.62;92.62
33949;BME280;20229;49.856;19.030;2023-01-27T04:32:45;101727.61;;;0.65;92.54
33949;BME280;20229;49.856;19.030;2023-01-27T04:38:06;101730.29;;;0.62;92.43
33949;BME280;20229;49.856;19.030;2023-01-27T04:43:09;101725.84;;;0.64;92.30
33949;BME280;20229;49.856;19.030;2023-01-27T04:48:32;101726.71;;;0.58;92.20
33949;BME280;20229;49.856;19.030;2023-01-27T04:53:36;101725.83;;;0.61;91.81
33949;BME280;20229;49.856;19.030;2023-01-27T04:59:06;101734.77;;;0.54;91.45
33949;BME280;20229;49.856;19.030;2023-01-27T05:04:09;101726.72;;;0.57;91.43
33949;BME280;20229;49.856;19.030;2023-01-27T05:09:24;101740.15;;;0.54;91.30
33949;BME280;20229;49.856;19.030;2023-01-27T05:14:27;101734.76;;;0.60;91.17
33949;BME280;20229;49.856;19.030;2023-01-27T05:19:50;101743.71;;;0.56;91.23
33949;BME280;20229;49.856;19.030;2023-01-27T05:24:53;101741.05;;;0.60;91.06
33949;BME280;20229;49.856;19.030;2023-01-27T05:30:16;101741.03;;;0.56;90.74
33949;BME280;20229;49.856;19.030;2023-01-27T05:35:19;101740.16;;;0.57;90.91
33949;BME280;20229;49.856;19.030;2023-01-27T05:40:41;101744.60;;;0.56;90.74
33949;BME280;20229;49.856;19.030;2023-01-27T05:45:45;101741.94;;;0.55;90.27
33949;BME280;20229;49.856;19.030;2023-01-27T05:51:08;101742.84;;;0.46;90.00
33949;BME280;20229;49.856;19.030;2023-01-27T05:56:14;101740.13;;;0.47;90.18
33949;BME280;20229;49.856;19.030;2023-01-27T06:01:34;101749.09;;;0.43;90.05
33949;BME280;20229;49.856;19.030;2023-01-27T06:06:39;101758.95;;;0.46;90.09
33949;BME280;20229;49.856;19.030;2023-01-27T06:11:59;101758.04;;;0.39;89.90
33949;BME280;20229;49.856;19.030;2023-01-27T06:17:02;101752.66;;;0.39;90.10
33949;BME280;20229;49.856;19.030;2023-01-27T06:22:25;101763.40;;;0.36;89.88
33949;BME280;20229;49.856;19.030;2023-01-27T06:27:28;101752.65;;;0.36;89.91
33949;BME280;20229;49.856;19.030;2023-01-27T06:32:51;101767.85;;;0.34;89.98
33949;BME280;20229;49.856;19.030;2023-01-27T06:37:57;101763.40;;;0.36;89.55
33949;BME280;20229;49.856;19.030;2023-01-27T06:43:17;101768.74;;;0.30;89.65
33949;BME280;20229;49.856;19.030;2023-01-27T06:48:20;101769.64;;;0.31;89.48
33949;BME280;20229;49.856;19.030;2023-01-27T06:53:43;101776.82;;;0.29;89.42
33949;BME280;20229;49.856;19.030;2023-01-27T06:58:46;101775.02;;;0.29;89.31
33949;BME280;20229;49.856;19.030;2023-01-27T07:04:09;101772.31;;;0.26;89.07
33949;BME280;20229;49.856;19.030;2023-01-27T07:09:12;101774.11;;;0.32;88.91
33949;BME280;20229;49.856;19.030;2023-01-27T07:14:35;101784.84;;;0.27;88.71
33949;BME280;20229;49.856;19.030;2023-01-27T07:19:38;101784.88;;;0.33;88.74
33949;BME280;20229;49.856;19.030;2023-01-27T07:25:02;101781.29;;;0.30;88.43
33949;BME280;20229;49.856;19.030;2023-01-27T07:30:07;101783.97;;;0.34;88.57
33949;BME280;20229;49.856;19.030;2023-01-27T07:35:27;101793.80;;;0.35;88.80
33949;BME280;20229;49.856;19.030;2023-01-27T07:40:30;101793.87;;;0.43;88.80
33949;BME280;20229;49.856;19.030;2023-01-27T07:45:53;101796.52;;;0.41;88.58
33949;BME280;20229;49.856;19.030;2023-01-27T07:50:59;101792.95;;;0.48;88.37
33949;BME280;20229;49.856;19.030;2023-01-27T07:56:19;101803.71;;;0.48;88.70
33949;BME280;20229;49.856;19.030;2023-01-27T08:01:22;101799.24;;;0.51;88.21
33949;BME280;20229;49.856;19.030;2023-01-27T08:06:45;101801.02;;;0.48;88.27
33949;BME280;20229;49.856;19.030;2023-01-27T08:11:48;101807.33;;;0.57;88.28
33949;BME280;20229;49.856;19.030;2023-01-27T08:17:10;101805.51;;;0.53;87.33
33949;BME280;20229;49.856;19.030;2023-01-27T08:22:14;101818.93;;;0.53;86.56
33949;BME280;20229;49.856;19.030;2023-01-27T08:27:36;101821.64;;;0.54;86.46
33949;BME280;20229;49.856;19.030;2023-01-27T08:32:40;101821.62;;;0.53;85.72
33949;BME280;20229;49.856;19.030;2023-01-27T08:38:02;101820.74;;;0.51;86.28
33949;BME280;20229;49.856;19.030;2023-01-27T08:43:06;101829.69;;;0.53;85.92
33949;BME280;20229;49.856;19.030;2023-01-27T08:48:29;101833.28;;;0.55;85.51
33949;BME280;20229;49.856;19.030;2023-01-27T08:53:34;101833.28;;;0.55;85.15
33949;BME280;20229;49.856;19.030;2023-01-27T08:58:54;101849.38;;;0.48;85.38
33949;BME280;20229;49.856;19.030;2023-01-27T09:03:58;101845.82;;;0.50;85.47
33949;BME280;20229;49.856;19.030;2023-01-27T09:09:20;101841.30;;;0.45;85.98
33949;BME280;20229;49.856;19.030;2023-01-27T09:14:23;101847.59;;;0.47;86.39
33949;BME280;20229;49.856;19.030;2023-01-27T09:19:46;101845.80;;;0.43;86.78
33949;BME280;20229;49.856;19.030;2023-01-27T09:24:49;101852.97;;;0.47;87.01
33949;BME280;20229;49.856;19.030;2023-01-27T09:30:14;101848.48;;;0.48;87.41
33949;BME280;20229;49.856;19.030;2023-01-27T09:35:18;101844.91;;;0.52;87.28
33949;BME280;20229;49.856;19.030;2023-01-27T09:40:52;101840.45;;;0.51;86.83
33949;BME280;20229;49.856;19.030;2023-01-27T10:17:38;101828.88;;;0.90;86.26
33949;BME280;20229;49.856;19.030;2023-01-27T10:28:08;101823.52;;;1.13;85.81
33949;BME280;20229;49.856;19.030;2023-01-27T10:33:20;101831.59;;;1.24;85.02
33949;BME280;20229;49.856;19.030;2023-01-27T10:49:00;101827.98;;;1.30;83.55
33949;BME280;20229;49.856;19.030;2023-01-27T10:54:16;101833.37;;;1.25;83.54
33949;BME280;20229;49.856;19.030;2023-01-27T10:59:29;101841.45;;;1.21;82.75
33949;BME280;20229;49.856;19.030;2023-01-27T11:04:45;101836.96;;;1.15;83.54
33949;BME280;20229;49.856;19.030;2023-01-27T11:09:58;101835.15;;;1.02;81.23
33949;BME280;20229;49.856;19.030;2023-01-27T11:15:16;101836.96;;;1.00;82.55
33949;BME280;20229;49.856;19.030;2023-01-27T11:31:06;101836.96;;;1.15;83.02
33949;BME280;20229;49.856;19.030;2023-01-27T11:36:13;101835.17;;;1.11;81.67
33949;BME280;20229;49.856;19.030;2023-01-27T11:41:17;101826.19;;;1.06;81.34
33949;BME280;20229;49.856;19.030;2023-01-27T11:46:23;101830.67;;;1.08;81.33
33949;BME280;20229;49.856;19.030;2023-01-27T11:51:34;101829.80;;;1.14;81.49
33949;BME280;20229;49.856;19.030;2023-01-27T11:56:41;101836.96;;;1.18;81.33
33949;BME280;20229;49.856;19.030;2023-01-27T12:01:55;101822.62;;;1.22;81.30
33949;BME280;20229;49.856;19.030;2023-01-27T12:07:07;101830.70;;;1.17;80.44
33949;BME280;20229;49.856;19.030;2023-01-27T12:12:20;101828.88;;;1.19;80.28
33949;BME280;20229;49.856;19.030;2023-01-27T12:17:49;101825.30;;;1.19;79.65
33949;BME280;20229;49.856;19.030;2023-01-27T12:22:44;101828.01;;;1.21;79.38
33949;BME280;20229;49.856;19.030;2023-01-27T12:28:02;101836.04;;;1.24;79.72
33949;BME280;20229;49.856;19.030;2023-01-27T12:33:11;101824.40;;;1.26;79.40
33949;BME280;20229;49.856;19.030;2023-01-27T12:38:25;101823.49;;;1.27;79.61
33949;BME280;20229;49.856;19.030;2023-01-27T12:43:29;101817.24;;;1.28;79.42
33949;BME280;20229;49.856;19.030;2023-01-27T12:48:33;101823.51;;;1.26;80.03
33949;BME280;20229;49.856;19.030;2023-01-27T12:53:41;101825.30;;;1.25;79.55
33949;BME280;20229;49.856;19.030;2023-01-27T12:58:57;101827.11;;;1.17;78.88
33949;BME280;20229;49.856;19.030;2023-01-27T13:14:37;101825.30;;;1.08;78.76
33949;BME280;20229;49.856;19.030;2023-01-27T13:19:43;101817.24;;;1.04;79.58
33949;BME280;20229;49.856;19.030;2023-01-27T13:24:53;101818.12;;;1.09;79.05
33949;BME280;20229;49.856;19.030;2023-01-27T13:35:36;101819.02;;;1.05;78.40
33949;BME280;20229;49.856;19.030;2023-01-27T13:40:43;101822.59;;;1.02;79.07
33949;BME280;20229;49.856;19.030;2023-01-27T13:51:28;101831.57;;;1.00;78.93
33949;BME280;20229;49.856;19.030;2023-01-27T13:56:35;101835.15;;;1.02;79.53
33949;BME280;20229;49.856;19.030;2023-01-27T14:07:00;101837.85;;;0.97;78.37
33949;BME280;20229;49.856;19.030;2023-01-27T14:12:24;101844.12;;;0.93;78.92
33949;BME280;20229;49.856;19.030;2023-01-27T14:28:04;101853.98;;;0.95;79.42
33949;BME280;20229;49.856;19.030;2023-01-27T14:33:20;101852.18;;;0.93;79.57
33949;BME280;20229;49.856;19.030;2023-01-27T14:38:31;101848.58;;;0.91;78.97
33949;BME280;20229;49.856;19.030;2023-01-27T14:43:43;101861.12;;;0.87;79.36
33949;BME280;20229;49.856;19.030;2023-01-27T14:59:32;101880.83;;;0.83;79.50
33949;BME280;20229;49.856;19.030;2023-01-27T15:04:46;101887.09;;;0.79;79.20
33949;BME280;20229;49.856;19.030;2023-01-27T15:25:43;101902.34;;;0.79;80.34
33949;BME280;20229;49.856;19.030;2023-01-27T15:41:19;101911.27;;;0.78;80.62
33949;BME280;20229;49.856;19.030;2023-01-27T15:46:29;101903.22;;;0.75;80.80
33949;BME280;20229;49.856;19.030;2023-01-27T15:51:34;101902.32;;;0.76;80.81
33949;BME280;20229;49.856;19.030;2023-01-27T15:56:50;101889.77;;;0.73;81.03
33949;BME280;20229;49.856;19.030;2023-01-27T16:02:12;101902.32;;;0.76;81.21
33949;BME280;20229;49.856;19.030;2023-01-27T16:12:35;101904.12;;;0.75;81.18
33949;BME280;20229;49.856;19.030;2023-01-27T16:23:00;101893.35;;;0.77;81.05
33949;BME280;20229;49.856;19.030;2023-01-27T16:28:12;101889.77;;;0.73;81.00
33949;BME280;20229;49.856;19.030;2023-01-27T16:33:24;101898.73;;;0.74;81.12
33949;BME280;20229;49.856;19.030;2023-01-27T16:38:37;101909.50;;;0.75;81.12
33949;BME280;20229;49.856;19.030;2023-01-27T16:43:49;101915.75;;;0.77;81.30
33949;BME280;20229;49.856;19.030;2023-01-27T16:48:54;101924.71;;;0.78;81.47
33949;BME280;20229;49.856;19.030;2023-01-27T16:53:59;101923.84;;;0.79;81.06
33949;BME280;20229;49.856;19.030;2023-01-27T16:59:05;101937.25;;;0.73;79.96
33949;BME280;20229;49.856;19.030;2023-01-27T17:04:21;101934.55;;;0.74;81.04
33949;BME280;20229;49.856;19.030;2023-01-27T17:09:27;101930.08;;;0.73;80.81
33949;BME280;20229;49.856;19.030;2023-01-27T17:14:35;101927.39;;;0.71;80.41
33949;BME280;20229;49.856;19.030;2023-01-27T17:19:49;101940.84;;;0.73;80.53
33949;BME280;20229;49.856;19.030;2023-01-27T17:24:54;101937.23;;;0.74;80.39
33949;BME280;20229;49.856;19.030;2023-01-27T17:30:05;101944.42;;;0.72;80.29
33949;BME280;20229;49.856;19.030;2023-01-27T17:35:20;101939.05;;;0.75;80.56
33949;BME280;20229;49.856;19.030;2023-01-27T17:40:24;101942.64;;;0.71;80.56
33949;BME280;20229;49.856;19.030;2023-01-27T17:45:29;101944.44;;;0.75;80.73
33949;BME280;20229;49.856;19.030;2023-01-27T17:50:49;101945.30;;;0.69;80.43
33949;BME280;20229;49.856;19.030;2023-01-27T17:55:53;101932.77;;;0.73;80.40
33949;BME280;20229;49.856;19.030;2023-01-27T18:01:16;101948.88;;;0.70;80.52
33949;BME280;20229;49.856;19.030;2023-01-27T18:06:22;101958.74;;;0.74;80.17
33949;BME280;20229;49.856;19.030;2023-01-27T18:11:50;101959.63;;;0.70;80.00
33949;BME280;20229;49.856;19.030;2023-01-27T18:17:01;101953.37;;;0.68;79.16
33949;BME280;20229;49.856;19.030;2023-01-27T18:22:14;101977.50;;;0.63;79.28
33949;BME280;20229;49.856;19.030;2023-01-27T18:27:29;101983.81;;;0.64;78.87
33949;BME280;20229;49.856;19.030;2023-01-27T18:32:39;101978.40;;;0.58;78.33
33949;BME280;20229;49.856;19.030;2023-01-27T18:42:59;101997.19;;;0.56;77.38
33949;BME280;20229;49.856;19.030;2023-01-27T18:48:09;102004.37;;;0.59;76.49
33949;BME280;20229;49.856;19.030;2023-01-27T18:53:24;102008.82;;;0.51;75.09
33949;BME280;20229;49.856;19.030;2023-01-27T18:58:27;102007.02;;;0.53;75.28
33949;BME280;20229;49.856;19.030;2023-01-27T19:03:50;102007.02;;;0.50;75.27
33949;BME280;20229;49.856;19.030;2023-01-27T19:08:57;101999.87;;;0.53;74.63
33949;BME280;20229;49.856;19.030;2023-01-27T19:14:15;102012.41;;;0.50;75.48
33949;BME280;20229;49.856;19.030;2023-01-27T19:19:19;101980.97;;;0.38;75.55
33949;BME280;20229;49.856;19.030;2023-01-27T19:24:42;102031.18;;;0.48;74.90
33949;BME280;20229;49.856;19.030;2023-01-27T19:29:47;102026.70;;;0.48;75.23
33949;BME280;20229;49.856;19.030;2023-01-27T19:35:08;102030.29;;;0.47;75.50
33949;BME280;20229;49.856;19.030;2023-01-27T19:40:17;102029.41;;;0.50;75.54
33949;BME280;20229;49.856;19.030;2023-01-27T19:45:33;102036.55;;;0.46;75.38
33949;BME280;20229;49.856;19.030;2023-01-27T19:50:36;102027.61;;;0.51;76.20
33949;BME280;20229;49.856;19.030;2023-01-27T19:55:59;102033.86;;;0.48;76.10
33949;BME280;20229;49.856;19.030;2023-01-27T20:01:02;102032.10;;;0.52;76.09
33949;BME280;20229;49.856;19.030;2023-01-27T20:06:27;102037.45;;;0.48;75.87
33949;BME280;20229;49.856;19.030;2023-01-27T20:11:35;102027.64;;;0.54;76.12
33949;BME280;20229;49.856;19.030;2023-01-27T20:16:51;102044.64;;;0.50;76.15
33949;BME280;20229;49.856;19.030;2023-01-27T20:21:54;102049.11;;;0.52;76.28
33949;BME280;20229;49.856;19.030;2023-01-27T20:27:16;102047.28;;;0.43;76.38
33949;BME280;20229;49.856;19.030;2023-01-27T20:32:19;102046.38;;;0.44;76.47
33949;BME280;20229;49.856;19.030;2023-01-27T20:37:44;102049.04;;;0.41;76.56
33949;BME280;20229;49.856;19.030;2023-01-27T20:43:08;102037.40;;;0.42;76.66
33949;BME280;20229;49.856;19.030;2023-01-27T20:48:34;102043.66;;;0.38;76.81
33949;BME280;20229;49.856;19.030;2023-01-27T20:53:39;102050.86;;;0.44;77.02
33949;BME280;20229;49.856;19.030;2023-01-27T20:59:00;102031.99;;;0.33;77.15
33949;BME280;20229;49.856;19.030;2023-01-27T21:04:03;102053.52;;;0.42;76.94
33949;BME280;20229;49.856;19.030;2023-01-27T21:09:26;102049.91;;;0.37;77.44
33949;BME280;20229;49.856;19.030;2023-01-27T21:14:29;102042.78;;;0.39;77.47
33949;BME280;20229;49.856;19.030;2023-01-27T21:19:52;102055.26;;;0.34;77.35
33949;BME280;20229;49.856;19.030;2023-01-27T21:24:55;102043.62;;;0.35;77.51
33949;BME280;20229;49.856;19.030;2023-01-27T21:30:17;102058.81;;;0.30;77.42
33949;BME280;20229;49.856;19.030;2023-01-27T21:35:21;102043.60;;;0.29;77.42
33949;BME280;20229;49.856;19.030;2023-01-27T21:40:44;102048.92;;;0.23;77.50
33949;BME280;20229;49.856;19.030;2023-01-27T21:45:55;102052.52;;;0.25;77.22
33949;BME280;20229;49.856;19.030;2023-01-27T21:51:09;102050.69;;;0.19;77.60
33949;BME280;20229;49.856;19.030;2023-01-27T21:56:13;102045.34;;;0.24;77.79
33949;BME280;20229;49.856;19.030;2023-01-27T22:01:35;102055.16;;;0.19;77.70
33949;BME280;20229;49.856;19.030;2023-01-27T22:06:38;102051.58;;;0.20;77.53
33949;BME280;20229;49.856;19.030;2023-01-27T22:12:01;102057.80;;;0.11;77.04
33949;BME280;20229;49.856;19.030;2023-01-27T22:17:05;102044.39;;;0.16;77.66
33949;BME280;20229;49.856;19.030;2023-01-27T22:22:27;102051.52;;;0.14;77.72
33949;BME280;20229;49.856;19.030;2023-01-27T22:27:30;102040.80;;;0.17;77.73
33949;BME280;20229;49.856;19.030;2023-01-27T22:32:52;102043.48;;;0.11;77.59
33949;BME280;20229;49.856;19.030;2023-01-27T22:37:55;102052.41;;;0.13;77.48
33949;BME280;20229;49.856;19.030;2023-01-27T22:43:18;102056.87;;;0.08;76.97
33949;BME280;20229;49.856;19.030;2023-01-27T22:48:21;102054.19;;;0.08;76.73
33949;BME280;20229;49.856;19.030;2023-01-27T22:53:45;102056.80;;;0.02;77.07
33949;BME280;20229;49.856;19.030;2023-01-27T22:58:48;102043.37;;;0.03;76.30
33949;BME280;20229;49.856;19.030;2023-01-27T23:04:10;102049.63;;;-0.03;76.81
33949;BME280;20229;49.856;19.030;2023-01-27T23:09:14;102041.59;;;0.02;77.02
33949;BME280;20229;49.856;19.030;2023-01-27T23:14:36;102037.05;;;-0.04;76.55
33949;BME280;20229;49.856;19.030;2023-01-27T23:19:39;102043.38;;;0.02;76.73
33949;BME280;20229;49.856;19.030;2023-01-27T23:25:01;102039.77;;;-0.02;76.59
33949;BME280;20229;49.856;19.030;2023-01-27T23:30:07;102031.71;;;-0.01;76.44
33949;BME280;20229;49.856;19.030;2023-01-27T23:35:27;102037.98;;;-0.02;76.54
33949;BME280;20229;49.856;19.030;2023-01-27T23:40:31;102031.71;;;-0.01;76.84
33949;BME280;20229;49.856;19.030;2023-01-27T23:45:53;102034.38;;;-0.05;76.78
33949;BME280;20229;49.856;19.030;2023-01-27T23:50:56;102032.62;;;-0.02;77.04
33949;BME280;20229;49.856;19.030;2023-01-27T23:56:19;102023.64;;;-0.05;75.99
